Time;durP1;ratioP1;P1;durP2;ratioP2;P2;SDS_P1;SDS_P2;PMS_P1;PMS_P2;Temp;Humidity;BMP_temperature;BMP_pressure;BME280_temperature;BME280_humidity;BME280_pressure;Samples;Min_cycle;Max_cycle;Signal;HPM_P1;HPM_P2
2022/10/14 00:01:06;;;;;;;23.02;13.52;;;12.70;99.90;;;;;;5020013;28;20561;-70
2022/10/14 00:03:34;;;;;;;29.33;14.57;;;12.70;99.90;;;;;;5008999;28;20049;-69
2022/10/14 00:06:06;;;;;;;24.42;14.50;;;12.70;99.90;;;;;;5026035;28;20479;-70
2022/10/14 00:08:34;;;;;;;27.35;15.13;;;12.60;99.90;;;;;;5007349;28;20050;-70
2022/10/14 00:11:13;;;;;;;25.63;15.18;;;12.60;99.90;;;;;;5024749;28;20045;-69
2022/10/14 00:13:40;;;;;;;24.33;13.85;;;12.60;99.90;;;;;;5027955;28;20038;-68
2022/10/14 00:16:19;;;;;;;23.48;14.75;;;12.60;99.90;;;;;;5021207;28;20054;-68
2022/10/14 00:18:47;;;;;;;23.40;14.10;;;12.60;99.90;;;;;;5028223;28;20524;-69
2022/10/14 00:21:14;;;;;;;25.77;14.85;;;12.60;99.90;;;;;;5023661;28;20049;-69
2022/10/14 00:23:42;;;;;;;22.00;13.48;;;12.60;99.90;;;;;;5012630;28;20061;-69
2022/10/14 00:26:15;;;;;;;22.83;15.07;;;12.70;99.90;;;;;;5011172;28;20527;-69
2022/10/14 00:28:43;;;;;;;22.70;14.30;;;12.70;99.90;;;;;;5024743;28;20052;-69
2022/10/14 00:31:11;;;;;;;22.20;14.45;;;12.70;99.90;;;;;;5018835;28;20064;-68
2022/10/14 00:33:38;;;;;;;24.83;14.80;;;12.70;99.90;;;;;;5026598;28;20125;-69
2022/10/14 00:36:06;;;;;;;23.30;14.48;;;12.80;99.90;;;;;;5025903;28;20061;-69
2022/10/14 00:38:35;;;;;;;23.00;13.23;;;12.80;99.90;;;;;;5028897;28;20041;-68
2022/10/14 00:41:03;;;;;;;21.30;13.40;;;12.80;99.90;;;;;;5048070;28;20040;-68
2022/10/14 00:43:52;;;;;;;23.52;14.60;;;12.80;99.90;;;;;;5017298;28;20037;-69
2022/10/14 00:46:20;;;;;;;23.90;14.60;;;12.80;99.90;;;;;;5041399;28;20421;-69
2022/10/14 00:48:52;;;;;;;28.23;14.77;;;12.80;99.90;;;;;;5028785;28;20053;-68
2022/10/14 00:51:20;;;;;;;29.70;14.68;;;12.80;99.90;;;;;;5008872;28;20155;-68
2022/10/14 00:53:49;;;;;;;22.38;14.23;;;12.70;99.90;;;;;;5022506;28;20061;-68
2022/10/14 00:56:22;;;;;;;26.85;15.05;;;12.70;99.90;;;;;;5027650;28;20049;-68
2022/10/14 00:58:50;;;;;;;25.67;14.15;;;12.70;99.90;;;;;;5027728;28;20045;-68
2022/10/14 01:01:18;;;;;;;25.73;16.33;;;12.70;99.90;;;;;;5022788;28;20076;-69
2022/10/14 01:03:46;;;;;;;26.30;16.60;;;12.70;99.90;;;;;;5028265;28;20046;-68
2022/10/14 01:06:39;;;;;;;23.15;16.20;;;12.70;99.90;;;;;;5026868;28;20064;-69
2022/10/14 01:09:18;;;;;;;25.15;15.85;;;12.70;99.90;;;;;;5028672;28;20095;-69
2022/10/14 01:12:04;;;;;;;26.85;16.98;;;12.70;99.90;;;;;;5028656;28;20051;-68
2022/10/14 01:15:15;;;;;;;27.45;15.57;;;12.70;99.90;;;;;;5027263;28;20040;-69
2022/10/14 01:17:54;;;;;;;26.48;16.20;;;12.60;99.90;;;;;;5028085;28;20133;-69
2022/10/14 01:20:33;;;;;;;27.65;16.60;;;12.70;99.90;;;;;;5025818;28;20361;-70
2022/10/14 01:23:20;;;;;;;25.73;15.40;;;12.70;99.90;;;;;;5023657;28;20052;-69
2022/10/14 01:26:05;;;;;;;31.05;17.50;;;12.60;99.90;;;;;;5011784;28;20128;-69
2022/10/14 01:28:45;;;;;;;32.92;19.13;;;12.70;99.90;;;;;;5027356;28;20053;-69
2022/10/14 01:31:19;;;;;;;29.83;19.65;;;12.60;99.90;;;;;;5027673;28;20072;-69
2022/10/14 01:33:51;;;;;;;32.47;17.73;;;12.60;99.90;;;;;;5029436;28;20209;-71
2022/10/14 01:36:57;;;;;;;36.22;19.10;;;12.60;99.90;;;;;;5024573;28;20065;-69
2022/10/14 01:39:29;;;;;;;32.60;19.05;;;12.70;99.90;;;;;;5023034;28;20500;-69
2022/10/14 01:42:13;;;;;;;29.73;18.88;;;12.60;99.90;;;;;;5025677;28;20132;-69
2022/10/14 01:44:46;;;;;;;33.97;19.45;;;12.70;99.90;;;;;;5026119;28;20541;-69
2022/10/14 01:47:18;;;;;;;31.17;18.92;;;12.70;99.90;;;;;;5025440;28;20081;-70
2022/10/14 01:49:54;;;;;;;29.35;18.73;;;12.70;99.90;;;;;;5027991;28;20418;-69
2022/10/14 01:52:26;;;;;;;32.58;18.83;;;12.70;99.90;;;;;;5026630;28;20476;-69
2022/10/14 01:54:58;;;;;;;30.90;19.40;;;12.80;99.90;;;;;;5014863;28;20037;-70
2022/10/14 01:57:29;;;;;;;32.58;19.20;;;12.80;99.90;;;;;;5011572;28;20522;-69
2022/10/14 01:59:58;;;;;;;32.55;19.90;;;12.80;99.90;;;;;;5027568;28;20375;-69
2022/10/14 02:02:25;;;;;;;29.88;19.13;;;12.80;99.90;;;;;;5027415;28;20045;-69
2022/10/14 02:04:52;;;;;;;27.50;19.60;;;12.70;99.90;;;;;;5029134;28;20049;-70
2022/10/14 02:07:26;;;;;;;33.83;18.90;;;12.70;99.90;;;;;;5027361;28;20054;-70
2022/10/14 02:10:48;;;;;;;33.03;20.05;;;12.70;99.90;;;;;;5026775;28;20507;-69
2022/10/14 02:13:40;;;;;;;36.83;20.17;;;12.70;99.90;;;;;;5038581;28;20526;-70
2022/10/14 02:16:16;;;;;;;35.78;20.33;;;12.70;99.90;;;;;;5018416;28;20076;-70
2022/10/14 02:18:59;;;;;;;32.90;19.48;;;12.60;99.90;;;;;;5026670;28;20067;-69
2022/10/14 02:21:53;;;;;;;32.08;20.85;;;12.60;99.90;;;;;;5027423;28;20104;-69
2022/10/14 02:24:50;;;;;;;31.92;18.70;;;12.60;99.90;;;;;;5018939;28;20084;-70
2022/10/14 02:27:20;;;;;;;33.55;19.42;;;12.70;99.90;;;;;;5027793;28;20173;-70
2022/10/14 02:29:49;;;;;;;33.17;19.92;;;12.60;99.90;;;;;;5010143;28;20492;-69
2022/10/14 02:32:18;;;;;;;32.92;19.77;;;12.60;99.90;;;;;;5017087;28;20042;-69
2022/10/14 02:34:52;;;;;;;32.35;18.35;;;12.60;99.90;;;;;;5038831;28;20045;-69
2022/10/14 02:37:21;;;;;;;29.85;17.67;;;12.60;99.90;;;;;;5048141;28;20109;-69
2022/10/14 02:40:16;;;;;;;33.83;18.75;;;12.70;99.90;;;;;;5047637;28;20080;-69
2022/10/14 02:42:44;;;;;;;29.83;18.42;;;12.70;99.90;;;;;;5026961;28;20037;-69
2022/10/14 02:45:13;;;;;;;35.10;19.35;;;12.70;99.90;;;;;;4998092;28;20051;-70
2022/10/14 02:47:40;;;;;;;34.03;19.33;;;12.70;99.90;;;;;;5033054;28;20061;-69
2022/10/14 02:50:08;;;;;;;31.23;18.45;;;12.70;99.90;;;;;;5027265;28;20519;-69
2022/10/14 02:52:35;;;;;;;31.52;17.85;;;12.70;99.90;;;;;;5028732;28;20045;-69
2022/10/14 02:55:03;;;;;;;28.45;18.65;;;12.70;99.90;;;;;;5030968;28;20073;-69
2022/10/14 02:57:30;;;;;;;33.75;18.40;;;12.70;99.90;;;;;;5029916;28;20057;-69
2022/10/14 02:59:58;;;;;;;25.73;17.85;;;12.70;99.90;;;;;;5030751;28;20769;-69
2022/10/14 03:02:25;;;;;;;24.60;16.70;;;12.70;99.90;;;;;;5029336;28;20515;-69
2022/10/14 03:04:52;;;;;;;28.30;18.08;;;12.70;99.90;;;;;;5010412;28;20441;-69
2022/10/14 03:07:20;;;;;;;27.45;17.30;;;12.70;99.90;;;;;;5030115;28;20586;-69
2022/10/14 03:09:50;;;;;;;28.90;17.55;;;12.70;99.90;;;;;;5027166;28;20033;-69
2022/10/14 03:12:18;;;;;;;29.30;17.05;;;12.70;99.90;;;;;;5009482;28;20096;-70
2022/10/14 03:14:47;;;;;;;24.92;16.45;;;12.70;99.90;;;;;;5010224;28;20041;-69
2022/10/14 03:17:16;;;;;;;26.33;18.08;;;12.70;99.90;;;;;;5030111;28;20076;-69
2022/10/14 03:19:44;;;;;;;29.17;18.33;;;12.70;99.90;;;;;;5027524;28;20073;-69
2022/10/14 03:22:13;;;;;;;27.05;17.27;;;12.70;99.90;;;;;;5022927;28;20045;-69
2022/10/14 03:24:41;;;;;;;28.63;17.77;;;12.70;99.90;;;;;;5030574;28;20068;-69
2022/10/14 03:27:31;;;;;;;27.85;17.52;;;12.70;99.90;;;;;;5031064;28;20049;-68
2022/10/14 03:30:05;;;;;;;31.05;18.70;;;12.70;99.90;;;;;;5015474;28;20395;-69
2022/10/14 03:32:36;;;;;;;30.88;18.33;;;12.70;99.90;;;;;;5032053;28;20137;-70
2022/10/14 03:35:25;;;;;;;29.67;18.52;;;12.70;99.90;;;;;;5053610;28;20088;-69
2022/10/14 03:37:55;;;;;;;30.80;18.42;;;12.60;99.90;;;;;;5034857;28;20068;-68
2022/10/14 03:40:29;;;;;;;35.88;18.67;;;12.60;99.90;;;;;;5015555;28;20174;-69
2022/10/14 03:43:00;;;;;;;28.63;17.45;;;12.60;99.90;;;;;;5028917;28;20109;-69
2022/10/14 03:45:34;;;;;;;29.35;17.92;;;12.60;99.90;;;;;;5029921;28;20400;-70
2022/10/14 03:48:03;;;;;;;32.25;18.13;;;12.60;99.90;;;;;;5029640;28;20152;-69
2022/10/14 03:50:30;;;;;;;24.95;17.10;;;12.60;99.90;;;;;;5030131;28;20045;-69
2022/10/14 03:52:59;;;;;;;28.70;16.95;;;12.60;99.90;;;;;;5047250;28;20047;-69
2022/10/14 03:55:32;;;;;;;29.58;17.88;;;12.60;99.90;;;;;;4995801;28;20045;-69
2022/10/14 03:58:00;;;;;;;27.48;17.90;;;12.60;99.90;;;;;;5047720;28;20061;-69
2022/10/14 04:00:29;;;;;;;29.67;17.95;;;12.50;99.90;;;;;;5047976;28;20067;-69
2022/10/14 04:03:13;;;;;;;29.08;17.02;;;12.50;99.90;;;;;;5026050;28;20092;-69
2022/10/14 04:05:42;;;;;;;29.08;17.55;;;12.60;99.90;;;;;;5019716;28;20133;-69
2022/10/14 04:08:14;;;;;;;27.60;17.75;;;12.50;99.90;;;;;;5011468;28;20048;-69
2022/10/14 04:10:55;;;;;;;28.58;17.45;;;12.50;99.90;;;;;;5007813;28;20524;-69
2022/10/14 04:13:24;;;;;;;30.58;18.50;;;12.50;99.90;;;;;;5033915;28;20034;-70
2022/10/14 04:15:51;;;;;;;29.17;17.67;;;12.60;99.90;;;;;;5026824;28;20627;-69
2022/10/14 04:18:25;;;;;;;29.80;18.35;;;12.60;99.90;;;;;;5027563;28;20049;-69
2022/10/14 04:21:00;;;;;;;33.03;17.70;;;12.60;99.90;;;;;;5014228;28;20045;-68
2022/10/14 04:23:28;;;;;;;27.50;17.83;;;12.60;99.90;;;;;;5029930;28;20103;-69
2022/10/14 04:26:08;;;;;;;26.92;17.27;;;12.60;99.90;;;;;;5027873;28;20045;-69
2022/10/14 04:28:37;;;;;;;27.77;17.48;;;12.60;99.90;;;;;;5027053;28;20431;-70
2022/10/14 04:31:13;;;;;;;30.50;18.27;;;12.50;99.90;;;;;;5024378;28;20444;-69
2022/10/14 04:33:50;;;;;;;25.90;16.83;;;12.50;99.90;;;;;;5031116;28;20039;-69
2022/10/14 04:36:24;;;;;;;27.70;17.05;;;12.50;99.90;;;;;;5019757;28;20045;-69
2022/10/14 04:38:53;;;;;;;27.05;17.40;;;12.60;99.90;;;;;;5015023;28;20037;-70
2022/10/14 04:41:20;;;;;;;27.50;17.35;;;12.60;99.90;;;;;;5017529;28;20042;-70
2022/10/14 04:43:49;;;;;;;26.60;17.05;;;12.50;99.90;;;;;;5017010;28;20041;-69
2022/10/14 04:46:26;;;;;;;30.40;17.63;;;12.60;99.90;;;;;;5012067;28;20034;-69
2022/10/14 04:48:53;;;;;;;30.25;18.25;;;12.60;99.90;;;;;;5012621;28;20046;-70
2022/10/14 04:51:25;;;;;;;27.77;17.30;;;12.50;99.90;;;;;;5028794;28;20519;-69
2022/10/14 04:54:18;;;;;;;28.20;17.63;;;12.50;99.90;;;;;;5028993;28;20065;-69
2022/10/14 04:56:57;;;;;;;30.15;19.27;;;12.50;99.90;;;;;;5001141;28;20073;-70
2022/10/14 04:59:25;;;;;;;33.40;18.13;;;12.50;99.90;;;;;;5011956;28;20553;-70
2022/10/14 05:02:11;;;;;;;27.45;17.95;;;12.60;99.90;;;;;;5009895;28;20054;-69
2022/10/14 05:04:52;;;;;;;27.15;17.92;;;12.60;99.90;;;;;;5011195;28;20496;-71
2022/10/14 05:07:19;;;;;;;24.90;17.25;;;12.60;99.90;;;;;;5020467;28;20468;-71
2022/10/14 05:09:53;;;;;;;29.88;17.95;;;12.60;99.90;;;;;;5023619;28;20046;-70
2022/10/14 05:12:38;;;;;;;31.98;17.38;;;12.60;99.90;;;;;;5013668;28;20617;-70
2022/10/14 05:15:06;;;;;;;35.85;19.13;;;12.60;99.90;;;;;;5023317;28;20112;-70
2022/10/14 05:17:43;;;;;;;28.55;17.80;;;12.60;99.90;;;;;;5011176;28;20057;-71
2022/10/14 05:20:13;;;;;;;30.65;18.45;;;12.70;99.90;;;;;;5027555;28;20034;-69
2022/10/14 05:22:46;;;;;;;32.47;18.00;;;12.70;99.90;;;;;;5044739;28;20590;-70
2022/10/14 05:25:13;;;;;;;28.05;17.73;;;12.70;99.90;;;;;;5018375;28;20049;-70
2022/10/14 05:27:41;;;;;;;28.85;18.38;;;12.60;99.90;;;;;;5010809;28;20124;-70
2022/10/14 05:30:10;;;;;;;29.83;17.50;;;12.60;99.90;;;;;;5021382;28;20038;-71
2022/10/14 05:32:42;;;;;;;30.13;17.65;;;12.60;99.90;;;;;;5006403;28;20567;-71
2022/10/14 05:35:10;;;;;;;32.55;19.08;;;12.60;99.90;;;;;;5027219;28;20073;-72
2022/10/14 05:37:40;;;;;;;26.83;17.90;;;12.60;99.90;;;;;;5008358;28;20042;-72
2022/10/14 05:40:09;;;;;;;27.95;17.88;;;12.60;99.90;;;;;;5004474;28;20045;-71
2022/10/14 05:42:37;;;;;;;32.45;19.23;;;12.60;99.90;;;;;;5010664;28;20412;-71
2022/10/14 05:45:05;;;;;;;29.85;18.60;;;12.70;99.90;;;;;;5007955;28;20042;-72
2022/10/14 05:47:36;;;;;;;33.40;18.40;;;12.70;99.90;;;;;;5000153;28;20500;-72
2022/10/14 05:50:13;;;;;;;29.88;17.48;;;12.70;99.90;;;;;;5013090;28;20722;-72
2022/10/14 05:52:43;;;;;;;35.50;18.50;;;12.70;99.90;;;;;;5018508;28;20590;-71
2022/10/14 05:55:16;;;;;;;32.47;19.50;;;12.70;99.90;;;;;;5004109;28;20174;-70
2022/10/14 05:57:45;;;;;;;32.65;18.52;;;12.70;99.90;;;;;;5024042;28;20116;-72
2022/10/14 06:00:18;;;;;;;30.10;17.98;;;12.70;99.90;;;;;;5027857;28;20499;-71
2022/10/14 06:02:58;;;;;;;34.58;19.90;;;12.70;99.90;;;;;;4993879;28;20042;-72
2022/10/14 06:05:26;;;;;;;32.97;18.00;;;12.70;99.90;;;;;;5018120;28;20045;-71
2022/10/14 06:07:53;;;;;;;27.58;17.27;;;12.70;99.90;;;;;;5027270;28;20107;-71
2022/10/14 06:10:21;;;;;;;32.78;18.63;;;12.80;99.90;;;;;;5027732;28;20054;-71
2022/10/14 06:12:48;;;;;;;30.73;17.85;;;12.80;99.90;;;;;;4999845;28;20042;-71
2022/10/14 06:15:16;;;;;;;30.63;19.45;;;12.80;99.90;;;;;;5024198;28;20038;-71
2022/10/14 06:17:43;;;;;;;31.20;18.17;;;12.80;99.90;;;;;;5017798;28;20038;-71
2022/10/14 06:20:11;;;;;;;31.38;19.20;;;12.80;99.90;;;;;;5015915;28;20048;-71
2022/10/14 06:22:38;;;;;;;27.63;16.77;;;12.90;99.90;;;;;;5012349;28;20402;-70
2022/10/14 06:25:05;;;;;;;31.55;18.13;;;13.00;99.90;;;;;;5018143;28;20034;-70
2022/10/14 06:27:36;;;;;;;30.77;19.00;;;13.00;99.90;;;;;;5031659;28;20064;-70
2022/10/14 06:30:04;;;;;;;28.00;17.95;;;13.10;99.90;;;;;;5003752;28;20504;-70
2022/10/14 06:32:31;;;;;;;28.50;18.00;;;13.10;99.90;;;;;;5031556;28;20061;-70
2022/10/14 06:34:59;;;;;;;30.23;17.35;;;13.10;99.90;;;;;;5041798;28;20450;-72
2022/10/14 06:37:26;;;;;;;31.67;17.50;;;13.20;99.90;;;;;;5050114;28;20463;-71
2022/10/14 06:39:53;;;;;;;25.27;17.73;;;13.20;99.90;;;;;;5039495;28;20150;-71
2022/10/14 06:42:21;;;;;;;29.08;17.35;;;13.20;99.90;;;;;;5010958;28;20446;-71
2022/10/14 06:44:49;;;;;;;32.95;17.65;;;13.30;99.90;;;;;;5026429;28;20386;-69
2022/10/14 06:47:16;;;;;;;33.47;19.98;;;13.20;99.90;;;;;;5009446;28;20053;-70
2022/10/14 06:49:44;;;;;;;33.08;18.00;;;13.30;99.90;;;;;;5033802;28;20068;-70
2022/10/14 06:52:11;;;;;;;30.15;17.30;;;13.40;99.90;;;;;;5029418;28;20498;-71
2022/10/14 06:54:38;;;;;;;32.28;18.58;;;13.40;99.90;;;;;;5031570;28;20472;-70
2022/10/14 06:57:10;;;;;;;;;;;13.40;99.90;;;;;;5025933;28;20491;-70
2022/10/14 06:59:38;;;;;;;31.08;16.80;;;13.40;99.90;;;;;;5028598;28;19933;-73
2022/10/14 07:02:05;;;;;;;29.80;16.73;;;13.40;99.90;;;;;;5018259;28;20052;-70
2022/10/14 07:04:33;;;;;;;29.02;16.52;;;13.50;99.90;;;;;;5027457;28;20423;-71
2022/10/14 07:07:01;;;;;;;30.08;17.95;;;13.50;99.90;;;;;;5030384;28;20091;-71
2022/10/14 07:09:29;;;;;;;30.85;18.85;;;13.60;99.90;;;;;;5009674;28;20041;-71
2022/10/14 07:11:56;;;;;;;32.83;19.33;;;13.80;99.90;;;;;;5030479;28;20053;-73
2022/10/14 07:14:23;;;;;;;29.30;18.05;;;13.90;99.90;;;;;;5011626;28;20041;-71
2022/10/14 07:16:52;;;;;;;27.40;16.88;;;14.00;99.90;;;;;;5030249;28;20112;-72
2022/10/14 07:19:19;;;;;;;27.00;17.48;;;14.10;99.90;;;;;;5008945;28;20041;-71
2022/10/14 07:21:46;;;;;;;27.45;16.27;;;14.20;99.90;;;;;;5045801;28;20033;-71
2022/10/14 07:24:14;;;;;;;27.13;16.77;;;14.30;99.90;;;;;;5011347;28;20058;-72
2022/10/14 07:26:41;;;;;;;28.13;17.15;;;14.40;99.90;;;;;;5016831;28;20038;-72
2022/10/14 07:29:08;;;;;;;32.25;17.02;;;14.40;99.90;;;;;;5001953;28;20468;-72
2022/10/14 07:31:36;;;;;;;27.50;16.40;;;14.50;99.90;;;;;;4973830;28;20691;-73
2022/10/14 07:34:03;;;;;;;25.60;16.45;;;14.50;99.90;;;;;;4990553;28;20056;-71
2022/10/14 07:36:30;;;;;;;25.77;15.55;;;14.60;99.90;;;;;;5028137;28;20100;-72
2022/10/14 07:38:58;;;;;;;30.70;17.55;;;14.70;99.90;;;;;;5021675;28;20045;-71
2022/10/14 07:41:25;;;;;;;22.85;15.80;;;14.70;99.90;;;;;;5018514;28;20052;-72
2022/10/14 07:44:00;;;;;;;30.30;17.10;;;14.70;99.90;;;;;;5024460;28;20100;-72
2022/10/14 07:46:31;;;;;;;27.85;15.65;;;14.60;99.90;;;;;;5018493;28;20203;-72
2022/10/14 07:49:06;;;;;;;22.33;15.55;;;14.70;99.90;;;;;;5010134;28;20049;-72
2022/10/14 07:51:34;;;;;;;23.83;15.48;;;14.70;99.90;;;;;;5028042;28;20060;-72
2022/10/14 07:54:03;;;;;;;26.20;17.27;;;14.60;99.90;;;;;;5029220;28;20137;-71
2022/10/14 07:56:31;;;;;;;30.08;18.40;;;14.60;99.90;;;;;;5025738;28;20388;-70
2022/10/14 07:58:58;;;;;;;32.00;17.35;;;14.80;99.90;;;;;;5028983;28;20041;-70
2022/10/14 08:01:25;;;;;;;26.25;16.67;;;14.70;99.90;;;;;;5028554;28;20038;-70
2022/10/14 08:03:53;;;;;;;30.35;19.08;;;14.70;99.90;;;;;;5027864;28;20710;-71
2022/10/14 08:06:21;;;;;;;35.13;17.83;;;14.70;99.90;;;;;;5026501;28;20441;-71
2022/10/14 08:08:48;;;;;;;27.30;17.83;;;14.60;99.90;;;;;;5010950;28;20469;-70
2022/10/14 08:11:22;;;;;;;28.83;16.55;;;14.60;99.90;;;;;;5028326;28;20056;-71
2022/10/14 08:13:50;;;;;;;27.42;16.70;;;14.60;99.90;;;;;;5007781;28;20052;-71
2022/10/14 08:16:20;;;;;;;25.50;16.13;;;14.60;99.90;;;;;;5029417;28;20121;-70
2022/10/14 08:18:48;;;;;;;29.63;16.60;;;14.60;99.90;;;;;;5028040;28;20060;-71
2022/10/14 08:21:17;;;;;;;21.98;15.73;;;14.70;99.90;;;;;;5029531;28;20061;-71
2022/10/14 08:23:45;;;;;;;22.85;16.02;;;14.70;99.90;;;;;;5029940;28;20491;-71
2022/10/14 08:26:24;;;;;;;26.40;16.33;;;14.80;99.90;;;;;;5028714;28;20416;-71
2022/10/14 08:28:51;;;;;;;25.30;16.73;;;14.90;99.90;;;;;;5031297;28;20136;-70
2022/10/14 08:31:20;;;;;;;24.77;16.02;;;15.00;99.90;;;;;;5030002;28;20125;-71
2022/10/14 08:33:47;;;;;;;23.63;14.70;;;15.00;99.90;;;;;;5031079;28;20056;-71
2022/10/14 08:36:15;;;;;;;22.42;15.05;;;15.10;99.90;;;;;;5031928;28;20471;-70
2022/10/14 08:38:43;;;;;;;24.10;16.08;;;15.20;99.90;;;;;;5029221;28;20057;-71
2022/10/14 08:41:32;;;;;;;27.58;16.92;;;15.30;99.90;;;;;;5028343;28;20033;-70
2022/10/14 08:44:31;;;;;;;23.98;15.40;;;15.40;99.90;;;;;;5031161;28;20108;-70
2022/10/14 08:47:02;;;;;;;27.17;15.05;;;15.70;99.90;;;;;;5033002;28;20543;-71
2022/10/14 08:49:48;;;;;;;26.40;15.93;;;15.80;99.90;;;;;;5007837;28;20132;-71
2022/10/14 08:52:26;;;;;;;23.35;14.00;;;16.10;99.90;;;;;;5016346;28;20045;-71
2022/10/14 08:54:59;;;;;;;22.67;13.98;;;16.30;99.90;;;;;;5026978;28;20496;-72
2022/10/14 08:57:34;;;;;;;20.38;14.57;;;16.50;99.90;;;;;;5022442;28;20037;-71
2022/10/14 09:00:03;;;;;;;22.13;14.15;;;16.80;99.90;;;;;;5029615;28;20042;-71
2022/10/14 09:02:33;;;;;;;17.63;13.57;;;17.00;99.90;;;;;;5027131;28;20052;-71
2022/10/14 09:05:02;;;;;;;25.90;13.95;;;17.30;99.90;;;;;;5026747;28;20045;-71
2022/10/14 09:07:32;;;;;;;22.67;14.05;;;17.50;99.90;;;;;;5027119;28;20052;-71
2022/10/14 09:10:05;;;;;;;20.75;13.00;;;17.70;99.90;;;;;;5029099;28;20529;-71
2022/10/14 09:12:39;;;;;;;24.98;13.55;;;17.90;99.90;;;;;;5022839;28;20075;-71
2022/10/14 09:15:15;;;;;;;23.38;13.02;;;18.10;99.90;;;;;;5029064;28;20531;-72
2022/10/14 09:17:55;;;;;;;20.77;15.32;;;18.20;99.90;;;;;;5027345;28;20042;-70
2022/10/14 09:20:24;;;;;;;17.98;12.18;;;18.50;99.90;;;;;;5015327;28;20049;-71
2022/10/14 09:23:03;;;;;;;16.05;11.90;;;18.70;99.90;;;;;;5022594;28;20080;-70
2022/10/14 09:25:36;;;;;;;21.88;12.23;;;18.80;99.90;;;;;;5027304;28;20071;-70
2022/10/14 09:28:03;;;;;;;18.92;12.20;;;18.80;99.90;;;;;;5028564;28;20056;-70
2022/10/14 09:30:36;;;;;;;17.30;12.02;;;18.80;99.90;;;;;;5017961;28;20045;-70
2022/10/14 09:33:05;;;;;;;19.52;11.13;;;18.70;99.90;;;;;;5029101;28;20597;-71
2022/10/14 09:35:41;;;;;;;16.40;11.45;;;18.80;99.90;;;;;;5038633;28;20041;-71
2022/10/14 09:38:10;;;;;;;17.70;11.60;;;18.80;99.90;;;;;;5028591;28;20041;-71
2022/10/14 09:40:43;;;;;;;19.25;11.95;;;19.10;99.90;;;;;;5010145;28;20115;-71
2022/10/14 09:43:15;;;;;;;14.50;10.63;;;19.30;99.90;;;;;;5024392;28;20523;-71
2022/10/14 09:46:06;;;;;;;13.90;10.02;;;19.40;99.90;;;;;;5027016;28;20522;-72
2022/10/14 09:48:50;;;;;;;16.10;10.75;;;19.50;99.90;;;;;;5037449;28;20092;-70
2022/10/14 09:51:22;;;;;;;12.43;9.25;;;19.80;99.90;;;;;;5027544;28;20034;-71
2022/10/14 09:54:03;;;;;;;15.13;9.55;;;19.70;99.90;;;;;;5028644;28;20053;-71
2022/10/14 09:56:38;;;;;;;14.53;9.40;;;19.70;99.90;;;;;;5024797;28;20080;-71
2022/10/14 09:59:20;;;;;;;13.75;9.57;;;19.70;99.90;;;;;;5029045;28;20534;-71
2022/10/14 10:01:56;;;;;;;16.48;8.98;;;19.50;99.90;;;;;;5031683;28;20049;-70
2022/10/14 10:04:30;;;;;;;15.23;10.25;;;19.30;99.90;;;;;;5028684;28;20135;-71
2022/10/14 10:07:00;;;;;;;14.05;9.13;;;19.50;99.90;;;;;;5030871;28;20053;-71
2022/10/14 10:09:27;;;;;;;12.38;9.32;;;19.30;99.90;;;;;;5031008;28;20045;-70
2022/10/14 10:11:55;;;;;;;14.05;8.98;;;19.10;99.90;;;;;;5032134;28;20046;-71
2022/10/14 10:14:24;;;;;;;12.38;8.40;;;19.20;99.90;;;;;;5014565;28;20139;-72
2022/10/14 10:17:07;;;;;;;12.20;8.35;;;19.10;99.90;;;;;;5013383;28;20139;-71
2022/10/14 10:19:44;;;;;;;11.45;8.50;;;19.20;99.90;;;;;;5031092;28;20440;-71
2022/10/14 10:22:22;;;;;;;12.85;9.23;;;19.30;99.90;;;;;;5041322;28;20152;-72
2022/10/14 10:25:13;;;;;;;12.13;8.90;;;19.60;99.90;;;;;;5029460;28;20053;-71
2022/10/14 10:27:44;;;;;;;13.25;9.27;;;19.80;99.90;;;;;;5027628;28;20049;-72
2022/10/14 10:30:19;;;;;;;14.18;9.20;;;20.30;99.90;;;;;;5030632;28;20076;-69
2022/10/14 10:33:00;;;;;;;12.50;8.48;;;20.60;99.90;;;;;;5030760;28;20045;-69
2022/10/14 10:35:49;;;;;;;13.88;8.85;;;20.90;99.90;;;;;;5031977;28;20507;-69
2022/10/14 10:38:29;;;;;;;11.60;8.80;;;21.00;99.90;;;;;;5010507;28;20076;-70
2022/10/14 10:41:14;;;;;;;12.90;9.25;;;21.00;99.90;;;;;;5031717;28;20045;-72
2022/10/14 10:44:04;;;;;;;14.98;8.90;;;20.90;99.90;;;;;;5042579;28;20140;-71
2022/10/14 10:46:55;;;;;;;15.93;8.88;;;20.60;99.90;;;;;;5029315;28;20545;-71
2022/10/14 10:49:51;;;;;;;11.10;8.73;;;20.10;99.90;;;;;;5016882;28;20049;-72
2022/10/14 10:52:51;;;;;;;13.00;8.95;;;20.20;99.90;;;;;;5030346;28;20051;-70
2022/10/14 10:55:52;;;;;;;12.48;8.52;;;20.00;99.90;;;;;;5022439;28;20049;-71
2022/10/14 10:58:39;;;;;;;12.93;8.77;;;20.10;99.90;;;;;;5010424;28;20034;-71
2022/10/14 11:01:13;;;;;;;12.82;8.65;;;20.20;99.90;;;;;;5028298;28;20136;-73
2022/10/14 11:03:49;;;;;;;10.88;9.07;;;20.40;99.90;;;;;;5041164;28;20513;-71
2022/10/14 11:12:37;;;;;;;10.05;8.23;;;20.70;99.90;;;;;;5023114;28;20120;-71
2022/10/14 11:15:39;;;;;;;11.18;7.90;;;21.00;99.90;;;;;;5030723;28;20104;-71
2022/10/14 11:18:30;;;;;;;13.63;8.32;;;21.80;99.90;;;;;;5030015;28;21477;-71
2022/10/14 11:21:12;;;;;;;11.85;9.13;;;22.20;99.90;;;;;;5023543;28;20503;-71
2022/10/14 11:23:47;;;;;;;10.68;8.10;;;22.00;99.90;;;;;;5033780;28;20045;-71
2022/10/14 11:26:30;;;;;;;10.48;8.02;;;21.70;99.90;;;;;;5028121;28;20049;-71
2022/10/14 11:29:04;;;;;;;11.27;8.90;;;21.70;99.90;;;;;;5030721;28;20038;-71
2022/10/14 11:31:46;;;;;;;13.55;8.60;;;21.60;99.90;;;;;;5029118;28;20037;-71
2022/10/14 11:34:34;;;;;;;11.77;8.13;;;21.40;99.90;;;;;;5036486;28;20045;-71
2022/10/14 11:37:14;;;;;;;12.98;7.78;;;21.50;99.90;;;;;;5023638;28;20052;-71
2022/10/14 11:39:48;;;;;;;11.70;8.90;;;21.30;99.90;;;;;;5030622;28;20143;-70
2022/10/14 11:43:18;;;;;;;9.57;7.55;;;21.30;99.90;;;;;;5044342;28;20045;-71
2022/10/14 11:45:59;;;;;;;11.10;7.35;;;21.50;99.90;;;;;;4973484;28;20054;-71
2022/10/14 11:48:51;;;;;;;9.98;7.35;;;21.10;99.90;;;;;;4973768;28;20073;-70
2022/10/14 11:51:25;;;;;;;12.05;8.07;;;21.10;99.90;;;;;;4972589;28;20557;-72
2022/10/14 11:54:13;;;;;;;9.30;7.53;;;21.10;99.90;;;;;;4971593;28;20069;-71
2022/10/14 11:56:47;;;;;;;9.38;7.97;;;21.00;99.90;;;;;;4977523;28;20058;-72
2022/10/14 11:59:47;;;;;;;11.20;8.10;;;20.90;99.90;;;;;;4989248;28;20466;-71
2022/10/14 12:03:01;;;;;;;11.65;8.38;;;20.90;99.90;;;;;;4963306;28;20473;-71
2022/10/14 12:05:58;;;;;;;10.40;8.32;;;20.80;99.90;;;;;;4948547;28;20441;-71
2022/10/14 12:08:49;;;;;;;13.43;8.63;;;20.20;99.90;;;;;;4951084;28;20145;-71
2022/10/14 12:11:32;;;;;;;13.10;9.05;;;20.20;99.90;;;;;;4955226;28;20087;-70
2022/10/14 12:14:18;;;;;;;13.43;8.80;;;20.20;99.90;;;;;;4969384;28;20122;-71
2022/10/14 12:16:47;;;;;;;13.48;8.10;;;20.00;99.90;;;;;;4944592;28;20049;-70
2022/10/14 12:19:28;;;;;;;12.32;8.70;;;20.00;99.90;;;;;;4977894;28;20050;-71
2022/10/14 12:22:15;;;;;;;9.80;7.78;;;20.30;99.90;;;;;;4991457;28;20409;-71
2022/10/14 12:24:51;;;;;;;10.38;7.85;;;20.40;99.90;;;;;;4991979;28;20054;-71
2022/10/14 12:27:22;;;;;;;10.02;7.70;;;20.40;99.90;;;;;;4999984;28;20053;-70
2022/10/14 12:29:51;;;;;;;16.08;8.10;;;20.30;99.90;;;;;;5005725;28;20170;-69
2022/10/14 12:32:21;;;;;;;11.20;8.13;;;20.30;99.90;;;;;;4998234;28;20185;-71
2022/10/14 12:34:54;;;;;;;10.15;7.85;;;20.40;99.90;;;;;;5001474;28;20050;-70
2022/10/14 12:37:24;;;;;;;11.45;8.80;;;20.40;99.90;;;;;;5009416;28;20073;-71
2022/10/14 12:40:06;;;;;;;11.70;7.65;;;20.30;99.90;;;;;;5013175;28;20076;-70
2022/10/14 12:42:42;;;;;;;9.88;8.32;;;19.90;99.90;;;;;;5045651;28;20053;-71
2022/10/14 12:45:15;;;;;;;10.68;8.93;;;19.80;99.90;;;;;;5030198;28;20484;-72
2022/10/14 12:47:45;;;;;;;11.38;8.23;;;19.60;99.90;;;;;;5028030;28;20060;-71
2022/10/14 12:50:26;;;;;;;14.60;8.50;;;19.50;99.90;;;;;;5029120;28;20076;-70
2022/10/14 12:53:00;;;;;;;12.73;9.15;;;19.40;99.90;;;;;;5029157;28;20056;-70
2022/10/14 12:55:32;;;;;;;11.82;8.82;;;19.20;99.90;;;;;;5027337;28;20073;-70
2022/10/14 12:58:02;;;;;;;11.87;8.23;;;19.00;99.90;;;;;;5023529;28;20037;-70
2022/10/14 13:00:34;;;;;;;9.00;7.72;;;18.90;99.90;;;;;;5028532;28;20550;-71
2022/10/14 13:03:05;;;;;;;11.20;7.93;;;18.90;99.90;;;;;;5027914;28;20041;-70
2022/10/14 13:05:41;;;;;;;10.10;7.05;;;18.60;99.90;;;;;;5025190;28;20519;-71
2022/10/14 13:08:14;;;;;;;10.30;7.00;;;18.40;99.90;;;;;;5026892;28;20049;-70
2022/10/14 13:10:49;;;;;;;11.07;7.07;;;18.50;99.90;;;;;;5027369;28;20404;-72
2022/10/14 13:13:41;;;;;;;9.32;6.88;;;18.40;99.90;;;;;;5028968;28;20041;-72